createdAt,value
2022-10-06T00:00:01.075Z,11.10
2022-10-06T00:02:53.253Z,11.10
2022-10-06T00:05:45.437Z,11.10
2022-10-06T00:08:39.115Z,11.10
2022-10-06T00:11:31.289Z,11.00
2022-10-06T00:14:23.410Z,11.10
2022-10-06T00:17:15.546Z,11.10
2022-10-06T00:20:09.335Z,11.10
2022-10-06T00:23:01.490Z,11.10
2022-10-06T00:25:53.677Z,11.10
2022-10-06T00:28:49.785Z,10.80
2022-10-06T00:31:41.987Z,10.40
2022-10-06T00:34:34.261Z,10.30
2022-10-06T00:37:27.265Z,10.20
2022-10-06T00:40:19.865Z,10.00
2022-10-06T00:43:39.927Z,9.90
2022-10-06T00:46:48.280Z,9.90
2022-10-06T00:49:40.548Z,9.90
2022-10-06T00:52:32.820Z,9.70
2022-10-06T00:55:25.056Z,9.60
2022-10-06T00:58:17.353Z,9.40
2022-10-06T01:01:11.719Z,9.40
2022-10-06T01:04:09.641Z,9.40
2022-10-06T01:07:02.115Z,9.40
2022-10-06T01:09:56.131Z,9.40
2022-10-06T01:12:48.455Z,9.30
2022-10-06T01:16:05.706Z,9.40
2022-10-06T01:18:58.909Z,9.30
2022-10-06T01:21:52.899Z,9.20
2022-10-06T01:24:47.740Z,9.20
2022-10-06T01:27:43.295Z,9.10
2022-10-06T01:30:54.771Z,9.00
2022-10-06T01:33:52.105Z,8.90
2022-10-06T01:36:44.230Z,8.90
2022-10-06T01:39:36.369Z,8.90
2022-10-06T01:42:31.826Z,8.90
2022-10-06T01:45:23.972Z,8.80
2022-10-06T01:48:16.097Z,8.80
2022-10-06T01:51:12.371Z,8.70
2022-10-06T01:54:04.586Z,8.80
2022-10-06T01:56:56.790Z,8.80
2022-10-06T01:59:53.856Z,8.80
2022-10-06T02:02:46.947Z,8.80
2022-10-06T02:05:39.071Z,8.80
2022-10-06T02:08:31.865Z,8.70
2022-10-06T02:11:24.153Z,8.70
2022-10-06T02:14:18.109Z,8.60
2022-10-06T02:17:10.461Z,8.50
2022-10-06T02:20:02.592Z,8.40
2022-10-06T02:22:54.727Z,8.30
2022-10-06T02:25:46.835Z,8.40
2022-10-06T02:28:39.305Z,8.50
2022-10-06T02:31:31.713Z,8.50
2022-10-06T02:34:23.934Z,8.50
2022-10-06T02:37:17.411Z,8.30
2022-10-06T02:40:10.101Z,8.40
2022-10-06T02:43:02.192Z,8.30
2022-10-06T02:45:55.983Z,8.20
2022-10-06T02:48:48.150Z,8.20
2022-10-06T02:51:40.276Z,8.10
2022-10-06T02:54:35.381Z,8.20
2022-10-06T02:57:27.505Z,8.20
2022-10-06T03:00:19.670Z,8.30
2022-10-06T03:03:11.826Z,8.30
2022-10-06T03:06:22.360Z,8.20
2022-10-06T03:09:14.487Z,8.10
2022-10-06T03:12:06.919Z,8.10
2022-10-06T03:14:59.147Z,8.10
2022-10-06T03:17:52.488Z,8.00
2022-10-06T03:20:44.634Z,7.90
2022-10-06T03:23:36.780Z,7.80
2022-10-06T03:26:38.841Z,7.80
2022-10-06T03:29:31.183Z,7.90
2022-10-06T03:32:24.116Z,7.90
2022-10-06T03:35:16.261Z,7.90
2022-10-06T03:38:08.370Z,7.90
2022-10-06T03:41:05.634Z,8.00
2022-10-06T03:43:59.273Z,7.90
2022-10-06T03:46:51.482Z,8.00
2022-10-06T03:49:43.683Z,7.90
2022-10-06T03:52:36.092Z,7.80
2022-10-06T03:55:28.278Z,7.70
2022-10-06T03:58:20.390Z,7.60
2022-10-06T04:01:23.486Z,7.60
2022-10-06T04:04:17.974Z,7.60
2022-10-06T04:07:10.142Z,7.70
2022-10-06T04:10:02.249Z,7.60
2022-10-06T04:12:54.329Z,7.60
2022-10-06T04:15:47.315Z,7.70
2022-10-06T04:18:39.734Z,7.70
2022-10-06T04:21:36.101Z,7.80
2022-10-06T04:24:28.225Z,7.90
2022-10-06T04:27:29.297Z,7.80
2022-10-06T04:30:21.417Z,7.80
2022-10-06T04:33:15.180Z,7.60
2022-10-06T04:36:08.930Z,7.60
2022-10-06T04:39:04.036Z,7.60
2022-10-06T04:41:56.189Z,7.50
2022-10-06T04:44:48.370Z,7.40
2022-10-06T04:47:40.630Z,7.30
2022-10-06T04:50:32.734Z,7.40
2022-10-06T04:53:24.979Z,7.60
2022-10-06T04:56:24.417Z,7.70
2022-10-06T04:59:16.602Z,7.50
2022-10-06T05:02:08.909Z,7.50
2022-10-06T05:05:01.042Z,7.50
2022-10-06T05:07:53.169Z,7.70
2022-10-06T05:10:45.339Z,7.70
2022-10-06T05:13:38.459Z,7.70
2022-10-06T05:16:31.344Z,8.10
2022-10-06T05:19:23.551Z,8.50
2022-10-06T05:22:15.661Z,9.00
2022-10-06T05:25:08.185Z,9.70
2022-10-06T05:28:00.295Z,10.40
2022-10-06T05:31:06.443Z,10.80
2022-10-06T05:33:59.690Z,11.40
2022-10-06T05:36:51.919Z,11.80
2022-10-06T05:39:44.040Z,12.00
2022-10-06T05:42:36.151Z,12.40
2022-10-06T05:45:28.276Z,12.80
2022-10-06T05:48:20.582Z,12.70
2022-10-06T05:51:13.612Z,12.40
2022-10-06T05:54:05.963Z,11.70
2022-10-06T05:56:58.118Z,11.20
2022-10-06T05:59:50.206Z,12.80
2022-10-06T06:02:42.345Z,15.80
2022-10-06T06:05:34.580Z,18.10
2022-10-06T06:08:27.262Z,19.70
2022-10-06T06:11:25.304Z,19.90
2022-10-06T06:14:19.720Z,19.00
2022-10-06T06:17:11.894Z,18.10
2022-10-06T06:20:04.282Z,17.40
2022-10-06T06:22:56.384Z,16.70
2022-10-06T06:26:07.193Z,16.10
2022-10-06T06:29:02.710Z,15.50
2022-10-06T06:31:54.887Z,15.20
2022-10-06T06:34:47.088Z,15.00
2022-10-06T06:37:39.329Z,15.40
2022-10-06T06:40:31.442Z,15.50
2022-10-06T06:43:23.559Z,15.40
2022-10-06T06:46:17.704Z,15.30
2022-10-06T06:49:12.043Z,15.30
2022-10-06T06:52:05.216Z,15.40
2022-10-06T06:54:57.301Z,15.60
2022-10-06T06:57:49.664Z,15.90
2022-10-06T07:00:41.793Z,15.90
2022-10-06T07:03:55.927Z,15.80
2022-10-06T07:06:58.723Z,15.80
2022-10-06T07:09:51.080Z,15.60
2022-10-06T07:12:45.362Z,15.60
2022-10-06T07:15:56.247Z,15.60
2022-10-06T07:19:06.981Z,15.90
2022-10-06T07:22:36.861Z,16.40
2022-10-06T07:25:28.989Z,16.80
2022-10-06T07:28:21.249Z,17.30
2022-10-06T07:31:13.462Z,17.90
2022-10-06T07:34:06.542Z,18.30
2022-10-06T07:37:02.707Z,18.50
2022-10-06T07:39:57.871Z,18.60
2022-10-06T07:42:52.216Z,18.80
2022-10-06T07:45:46.378Z,19.10
2022-10-06T07:48:38.719Z,19.30
2022-10-06T07:51:30.924Z,19.10
2022-10-06T07:54:27.279Z,19.20
2022-10-06T07:57:19.641Z,19.30
2022-10-06T08:00:15.482Z,19.60
2022-10-06T08:03:08.748Z,19.80
2022-10-06T08:06:02.690Z,19.70
2022-10-06T08:08:56.629Z,19.70
2022-10-06T08:11:48.917Z,19.70
2022-10-06T08:14:41.029Z,19.70
2022-10-06T08:17:35.222Z,19.80
2022-10-06T08:20:27.723Z,20.00
2022-10-06T08:23:19.890Z,20.10
2022-10-06T08:26:13.318Z,20.20
2022-10-06T08:29:05.905Z,20.10
2022-10-06T08:31:59.503Z,20.30
2022-10-06T08:34:52.636Z,20.80
2022-10-06T08:37:45.935Z,21.20
2022-10-06T08:40:38.267Z,21.00
2022-10-06T08:43:32.383Z,20.80
2022-10-06T08:46:30.113Z,20.80
2022-10-06T08:49:25.132Z,20.70
2022-10-06T08:52:34.488Z,20.40
2022-10-06T08:55:56.826Z,20.70
2022-10-06T08:58:58.708Z,21.10
2022-10-06T09:01:54.800Z,21.20
2022-10-06T09:04:49.554Z,21.30
2022-10-06T09:07:45.958Z,21.30
2022-10-06T09:10:49.268Z,21.10
2022-10-06T09:13:53.115Z,21.10
2022-10-06T09:16:51.951Z,21.10
2022-10-06T09:19:48.097Z,20.90
2022-10-06T09:22:40.340Z,21.10
2022-10-06T09:25:33.578Z,21.40
2022-10-06T09:28:25.824Z,21.70
2022-10-06T09:31:24.155Z,21.90
2022-10-06T09:34:35.470Z,21.60
2022-10-06T09:37:28.195Z,21.60
2022-10-06T09:40:34.257Z,21.40
2022-10-06T09:43:28.674Z,21.40
2022-10-06T09:46:34.491Z,21.70
2022-10-06T09:49:27.628Z,21.90
2022-10-06T09:52:19.807Z,22.10
2022-10-06T09:55:14.651Z,22.20
2022-10-06T09:58:32.837Z,22.10
2022-10-06T10:01:31.738Z,22.20
2022-10-06T10:04:38.781Z,22.50
2022-10-06T10:07:31.627Z,22.70
2022-10-06T10:10:25.257Z,22.90
2022-10-06T10:13:19.144Z,23.00
2022-10-06T10:16:16.535Z,23.00
2022-10-06T10:19:30.138Z,22.90
2022-10-06T10:22:27.505Z,22.90
2022-10-06T10:25:44.450Z,22.90
2022-10-06T10:29:15.086Z,23.00
2022-10-06T10:32:20.381Z,23.20
2022-10-06T10:35:24.690Z,23.20
2022-10-06T10:38:21.219Z,23.30
2022-10-06T10:41:28.256Z,23.40
2022-10-06T10:44:27.856Z,23.50
2022-10-06T10:47:25.829Z,23.50
2022-10-06T10:50:32.095Z,23.30
2022-10-06T10:53:36.526Z,23.20
2022-10-06T10:56:33.616Z,23.10
2022-10-06T10:59:57.211Z,23.10
2022-10-06T11:02:54.938Z,23.20
2022-10-06T11:06:14.781Z,23.10
2022-10-06T11:09:18.936Z,23.00
2022-10-06T11:12:17.068Z,23.20
2022-10-06T11:15:31.429Z,23.20
2022-10-06T11:18:32.682Z,23.40
2022-10-06T11:21:46.192Z,23.30
2022-10-06T11:24:44.441Z,23.30
2022-10-06T11:27:50.838Z,23.20
2022-10-06T11:31:05.736Z,23.10
2022-10-06T11:34:03.299Z,23.10
2022-10-06T11:36:58.161Z,23.20
2022-10-06T11:39:56.478Z,23.20
2022-10-06T11:43:17.102Z,23.30
2022-10-06T11:46:31.238Z,23.20
2022-10-06T11:49:30.393Z,23.00
2022-10-06T11:52:22.556Z,22.90
2022-10-06T11:55:17.647Z,22.70
2022-10-06T11:58:41.980Z,22.40
2022-10-06T12:01:33.665Z,22.30
2022-10-06T12:04:26.441Z,22.20
2022-10-06T12:07:18.607Z,22.30
2022-10-06T12:10:34.168Z,22.30
2022-10-06T12:17:11.515Z,22.10
2022-10-06T12:20:28.098Z,22.20
2022-10-06T12:23:39.261Z,22.30
2022-10-06T12:26:41.785Z,22.30
2022-10-06T12:29:59.416Z,22.40
2022-10-06T12:32:53.243Z,22.20
2022-10-06T12:35:46.163Z,22.20
2022-10-06T12:38:43.850Z,22.20
2022-10-06T12:41:57.811Z,22.30
2022-10-06T12:44:51.566Z,22.30
2022-10-06T12:47:44.639Z,22.30
2022-10-06T12:50:37.175Z,22.40
2022-10-06T12:53:36.216Z,22.40
2022-10-06T12:56:37.601Z,22.20
2022-10-06T12:59:32.222Z,22.30
2022-10-06T13:02:27.832Z,22.30
2022-10-06T13:05:20.357Z,22.10
2022-10-06T13:08:39.366Z,22.00
2022-10-06T13:11:31.591Z,21.90
2022-10-06T13:14:23.738Z,22.00
2022-10-06T13:17:15.991Z,22.00
2022-10-06T13:20:22.540Z,21.70
2022-10-06T13:23:20.408Z,21.50
2022-10-06T13:26:32.164Z,21.60
2022-10-06T13:29:25.948Z,21.60
2022-10-06T13:32:18.839Z,21.50
2022-10-06T13:35:12.670Z,21.40
2022-10-06T13:38:06.268Z,21.30
2022-10-06T13:41:07.764Z,21.10
2022-10-06T13:44:11.630Z,21.00
2022-10-06T13:47:18.764Z,21.00
2022-10-06T13:50:20.005Z,20.90
2022-10-06T13:53:30.247Z,21.00
2022-10-06T13:56:39.525Z,21.00
2022-10-06T13:59:31.780Z,21.00
2022-10-06T14:02:32.410Z,20.90
2022-10-06T14:05:26.474Z,20.80
2022-10-06T14:08:27.438Z,20.70
2022-10-06T14:11:29.148Z,20.50
2022-10-06T14:14:21.855Z,20.40
2022-10-06T14:17:28.013Z,20.20
2022-10-06T14:20:41.364Z,20.20
2022-10-06T14:23:33.501Z,20.00
2022-10-06T14:26:28.716Z,19.80
2022-10-06T14:29:21.371Z,19.70
2022-10-06T14:32:17.674Z,19.60
2022-10-06T14:35:11.631Z,19.60
2022-10-06T14:38:03.740Z,19.60
2022-10-06T14:40:55.962Z,19.50
2022-10-06T14:43:48.207Z,19.50
2022-10-06T14:46:42.089Z,19.40
2022-10-06T14:49:34.261Z,19.40
2022-10-06T14:52:26.371Z,19.40
2022-10-06T14:55:18.844Z,19.20
2022-10-06T14:58:11.206Z,19.20
2022-10-06T15:01:05.452Z,19.10
2022-10-06T15:04:00.182Z,19.00
2022-10-06T15:07:11.023Z,19.00
2022-10-06T15:10:03.705Z,18.90
2022-10-06T15:12:56.986Z,18.80
2022-10-06T15:15:56.697Z,18.70
2022-10-06T15:18:49.491Z,18.70
2022-10-06T15:21:46.336Z,18.60
2022-10-06T15:24:38.577Z,18.60
2022-10-06T15:27:49.219Z,18.60
2022-10-06T15:30:41.812Z,18.70
2022-10-06T15:33:34.961Z,18.50
2022-10-06T15:36:29.351Z,18.40
2022-10-06T15:39:24.491Z,18.30
2022-10-06T15:42:18.758Z,18.30
2022-10-06T15:45:11.083Z,18.20
2022-10-06T15:48:03.257Z,18.20
2022-10-06T15:50:55.411Z,18.20
2022-10-06T15:53:48.222Z,18.20
2022-10-06T15:56:40.830Z,18.20
2022-10-06T15:59:33.978Z,18.10
2022-10-06T16:02:27.198Z,18.10
2022-10-06T16:05:39.353Z,18.10
2022-10-06T16:08:35.625Z,18.00
2022-10-06T16:11:27.761Z,18.00
2022-10-06T16:14:20.224Z,18.00
2022-10-06T16:17:13.079Z,17.90
2022-10-06T16:20:05.530Z,17.90
2022-10-06T16:22:57.687Z,17.90
2022-10-06T16:25:50.414Z,17.90
2022-10-06T16:28:42.653Z,17.80
2022-10-06T16:31:35.014Z,17.70
2022-10-06T16:34:27.502Z,17.60
2022-10-06T16:37:19.627Z,17.60
2022-10-06T16:40:11.746Z,17.60
2022-10-06T16:43:03.852Z,17.50
2022-10-06T16:46:02.547Z,17.50
2022-10-06T16:48:57.594Z,17.30
2022-10-06T16:51:49.679Z,17.40
2022-10-06T16:54:41.803Z,17.40
2022-10-06T16:57:34.020Z,17.30
2022-10-06T17:00:27.237Z,17.20
2022-10-06T17:03:19.441Z,17.30
2022-10-06T17:06:17.393Z,17.20
2022-10-06T17:09:14.055Z,17.20
2022-10-06T17:12:06.181Z,17.20
2022-10-06T17:14:58.302Z,17.10
2022-10-06T17:17:50.417Z,17.10
2022-10-06T17:20:42.517Z,17.10
2022-10-06T17:23:35.194Z,17.10
2022-10-06T17:26:32.756Z,17.20
2022-10-06T17:29:26.054Z,17.20
2022-10-06T17:32:18.255Z,17.20
2022-10-06T17:35:10.369Z,17.10
2022-10-06T17:38:03.646Z,17.10
2022-10-06T17:40:55.908Z,17.10
2022-10-06T17:43:51.643Z,17.00
2022-10-06T17:46:45.473Z,16.80
2022-10-06T17:49:37.620Z,16.70
2022-10-06T17:52:30.390Z,16.60
2022-10-06T17:55:22.595Z,16.60
2022-10-06T17:58:18.577Z,16.60
2022-10-06T18:01:17.645Z,16.40
2022-10-06T18:04:12.234Z,16.40
2022-10-06T18:07:05.286Z,16.30
2022-10-06T18:10:16.010Z,16.30
2022-10-06T18:13:08.111Z,16.20
2022-10-06T18:16:00.269Z,16.30
2022-10-06T18:18:56.039Z,16.20
2022-10-06T18:21:48.199Z,16.10
2022-10-06T18:24:40.559Z,16.10
2022-10-06T18:27:33.437Z,16.00
2022-10-06T18:30:29.369Z,16.00
2022-10-06T18:36:34.039Z,15.80
2022-10-06T18:39:31.129Z,15.70
2022-10-06T18:42:23.250Z,15.70
2022-10-06T18:45:39.098Z,15.60
2022-10-06T18:48:50.242Z,15.70
2022-10-06T18:51:45.100Z,15.60
2022-10-06T18:54:37.219Z,15.70
2022-10-06T18:57:29.477Z,15.60
2022-10-06T19:00:21.992Z,15.70
2022-10-06T19:03:14.152Z,15.60
2022-10-06T19:06:06.860Z,15.50
2022-10-06T19:09:01.200Z,15.40
2022-10-06T19:11:56.488Z,15.40
2022-10-06T19:14:50.392Z,15.20
2022-10-06T19:17:45.677Z,15.10
2022-10-06T19:20:37.826Z,15.00
2022-10-06T19:23:34.460Z,15.00
2022-10-06T19:26:27.000Z,15.00
2022-10-06T19:29:23.647Z,15.10
2022-10-06T19:32:18.538Z,15.10
2022-10-06T19:35:11.081Z,15.10
2022-10-06T19:38:03.243Z,15.20
2022-10-06T19:41:15.328Z,15.30
2022-10-06T19:44:07.460Z,15.10
2022-10-06T19:46:59.747Z,15.00
2022-10-06T19:49:53.992Z,15.00
2022-10-06T19:52:47.327Z,15.00
2022-10-06T19:55:39.469Z,15.00
2022-10-06T19:58:33.336Z,14.90
2022-10-06T20:01:27.334Z,14.90
2022-10-06T20:04:21.700Z,14.80
2022-10-06T20:07:13.864Z,14.70
2022-10-06T20:10:06.266Z,14.90
2022-10-06T20:12:58.703Z,14.90
2022-10-06T20:15:50.856Z,14.80
2022-10-06T20:18:45.021Z,14.70
2022-10-06T20:21:39.370Z,14.70
2022-10-06T20:24:31.872Z,14.70
2022-10-06T20:27:24.014Z,14.70
2022-10-06T20:30:16.133Z,14.60
2022-10-06T20:33:11.306Z,14.10
2022-10-06T20:36:03.627Z,13.90
2022-10-06T20:39:14.788Z,13.80
2022-10-06T20:42:12.171Z,13.70
2022-10-06T20:45:07.367Z,13.50
2022-10-06T20:48:00.257Z,13.30
2022-10-06T20:50:53.358Z,13.20
2022-10-06T20:53:45.686Z,13.30
2022-10-06T20:56:37.870Z,13.40
2022-10-06T20:59:30.931Z,13.50
2022-10-06T21:02:23.155Z,13.70
2022-10-06T21:05:15.380Z,13.90
2022-10-06T21:08:07.498Z,13.90
2022-10-06T21:11:01.866Z,14.00
2022-10-06T21:13:54.211Z,14.10
2022-10-06T21:16:48.345Z,14.10
2022-10-06T21:19:40.532Z,14.00
2022-10-06T21:22:32.723Z,14.00
2022-10-06T21:25:24.822Z,13.90
2022-10-06T21:28:18.485Z,14.00
2022-10-06T21:31:15.751Z,13.90
2022-10-06T21:34:08.097Z,14.00
2022-10-06T21:37:00.186Z,14.00
2022-10-06T21:39:52.280Z,14.00
2022-10-06T21:42:44.425Z,13.80
2022-10-06T21:45:39.230Z,13.80
2022-10-06T21:48:31.474Z,13.70
2022-10-06T21:51:26.651Z,13.80
2022-10-06T21:54:20.209Z,13.60
2022-10-06T21:57:15.345Z,13.50
2022-10-06T22:00:11.061Z,13.60
2022-10-06T22:03:03.643Z,13.50
2022-10-06T22:05:55.969Z,13.50
2022-10-06T22:08:48.480Z,13.60
2022-10-06T22:11:40.750Z,13.60
2022-10-06T22:14:32.866Z,13.60
2022-10-06T22:17:26.201Z,13.70
2022-10-06T22:20:18.340Z,13.70
2022-10-06T22:23:10.457Z,13.70
2022-10-06T22:26:03.691Z,13.60
2022-10-06T22:28:59.600Z,13.50
2022-10-06T22:31:52.051Z,13.40
2022-10-06T22:34:44.276Z,13.30
2022-10-06T22:37:36.372Z,13.30
2022-10-06T22:40:28.486Z,13.20
2022-10-06T22:43:20.654Z,13.20
2022-10-06T22:46:13.222Z,13.10
2022-10-06T22:49:05.994Z,13.10
2022-10-06T22:51:58.073Z,13.00
2022-10-06T22:54:50.185Z,13.00
2022-10-06T22:57:42.550Z,13.00
2022-10-06T23:00:38.372Z,13.00
2022-10-06T23:03:30.604Z,13.10
2022-10-06T23:06:23.064Z,13.00
2022-10-06T23:09:15.273Z,13.00
2022-10-06T23:12:07.412Z,12.90
2022-10-06T23:14:59.501Z,12.90
2022-10-06T23:17:51.996Z,12.80
2022-10-06T23:20:44.182Z,12.80
2022-10-06T23:23:36.654Z,12.70
2022-10-06T23:26:29.053Z,12.70
2022-10-06T23:29:21.442Z,12.80
2022-10-06T23:32:13.537Z,12.80
2022-10-06T23:35:06.757Z,12.80
2022-10-06T23:37:58.881Z,12.80
2022-10-06T23:40:51.019Z,12.80
2022-10-06T23:43:43.625Z,12.70
2022-10-06T23:46:35.795Z,12.70
2022-10-06T23:49:28.025Z,12.70
2022-10-06T23:52:20.172Z,12.70
2022-10-06T23:55:12.295Z,12.60
2022-10-06T23:58:04.406Z,12.60
